Time;durP1;ratioP1;P1;durP2;ratioP2;P2;SDS_P1;SDS_P2;PMS_P1;PMS_P2;Temp;Humidity;BMP_temperature;BMP_pressure;BME280_temperature;BME280_humidity;BME280_pressure;Samples;Min_cycle;Max_cycle;Signal;HPM_P1;HPM_P2
2021/08/12 00:02:25;;;;;;;1.40;1.30;;;17.90;98.00;;;;;;5051436;28;20539;-73
2021/08/12 00:04:53;;;;;;;1.63;1.50;;;17.90;98.00;;;;;;5051432;28;20453;-72
2021/08/12 00:07:21;;;;;;;2.20;1.43;;;18.00;98.00;;;;;;5051528;28;20520;-73
2021/08/12 00:09:47;;;;;;;1.47;1.43;;;17.80;98.00;;;;;;5051251;28;20485;-72
2021/08/12 00:12:15;;;;;;;2.13;1.73;;;17.80;98.00;;;;;;5051195;28;20964;-72
2021/08/12 00:14:42;;;;;;;1.87;1.50;;;17.80;98.00;;;;;;5051200;28;20959;-73
2021/08/12 00:17:10;;;;;;;1.60;1.50;;;17.80;98.00;;;;;;5051098;28;20523;-73
2021/08/12 00:19:37;;;;;;;1.73;1.53;;;17.70;98.00;;;;;;5050936;28;20458;-72
2021/08/12 00:22:04;;;;;;;1.60;1.10;;;17.70;98.00;;;;;;5051115;28;20516;-72
2021/08/12 00:24:32;;;;;;;1.40;1.20;;;17.70;98.00;;;;;;5050899;28;20457;-73
2021/08/12 00:27:02;;;;;;;2.33;1.57;;;17.70;98.00;;;;;;5033253;28;20450;-72
2021/08/12 00:29:29;;;;;;;1.90;1.33;;;17.80;98.00;;;;;;5050680;28;20573;-73
2021/08/12 00:31:56;;;;;;;1.60;1.40;;;17.70;98.00;;;;;;5050308;28;20558;-72
2021/08/12 00:34:24;;;;;;;1.90;1.67;;;17.80;98.00;;;;;;5032906;28;20508;-72
2021/08/12 00:36:52;;;;;;;1.77;1.40;;;17.80;98.00;;;;;;5050755;28;20485;-73
2021/08/12 00:39:19;;;;;;;2.10;1.30;;;17.70;98.00;;;;;;5050713;28;20466;-73
2021/08/12 00:41:47;;;;;;;1.37;1.27;;;17.60;98.00;;;;;;5050563;28;20454;-72
2021/08/12 00:44:14;;;;;;;1.83;1.43;;;17.50;98.00;;;;;;5050807;28;20485;-72
2021/08/12 00:46:41;;;;;;;1.73;1.60;;;17.60;98.00;;;;;;5050718;28;20486;-72
2021/08/12 00:49:08;;;;;;;1.40;1.40;;;17.60;98.00;;;;;;5050598;28;20454;-72
2021/08/12 00:51:38;;;;;;;1.50;1.30;;;17.50;98.00;;;;;;5050524;28;20533;-72
2021/08/12 00:54:06;;;;;;;1.40;1.30;;;17.40;98.00;;;;;;5050700;28;20519;-72
2021/08/12 00:56:34;;;;;;;1.40;1.27;;;17.40;98.00;;;;;;5050570;28;20535;-72
2021/08/12 00:59:01;;;;;;;1.90;1.50;;;17.50;98.00;;;;;;5032882;28;21041;-72
2021/08/12 01:01:28;;;;;;;1.40;1.20;;;17.50;98.00;;;;;;5050471;28;20450;-73
2021/08/12 01:03:58;;;;;;;1.63;1.40;;;17.50;98.00;;;;;;5050492;28;20493;-72
2021/08/12 01:06:29;;;;;;;1.73;1.27;;;17.50;98.00;;;;;;5050577;28;20867;-72
2021/08/12 01:09:04;;;;;;;2.20;1.80;;;17.40;98.00;;;;;;5050438;28;20884;-73
2021/08/12 01:11:38;;;;;;;1.50;1.47;;;17.50;98.00;;;;;;5050389;28;20547;-71
2021/08/12 01:14:20;;;;;;;2.60;1.93;;;17.40;98.00;;;;;;5050387;28;20531;-72
2021/08/12 01:16:51;;;;;;;2.60;1.30;;;17.40;98.00;;;;;;5033574;28;20512;-72
2021/08/12 01:19:40;;;;;;;1.80;1.70;;;17.40;98.00;;;;;;5050449;28;20485;-72
2021/08/12 01:22:08;;;;;;;3.30;1.20;;;17.20;98.00;;;;;;5050431;28;20887;-73
2021/08/12 01:24:40;;;;;;;1.40;1.37;;;17.20;98.00;;;;;;5050523;28;20454;-73
2021/08/12 01:27:12;;;;;;;1.20;1.20;;;17.30;98.00;;;;;;5050547;28;20936;-72
2021/08/12 01:29:48;;;;;;;1.47;1.30;;;17.30;98.00;;;;;;5050350;28;20454;-73
2021/08/12 01:32:19;;;;;;;2.53;1.70;;;17.30;98.00;;;;;;5050126;28;20964;-72
2021/08/12 01:34:55;;;;;;;1.63;1.20;;;17.10;98.00;;;;;;5050191;28;20490;-73
2021/08/12 01:37:25;;;;;;;1.73;1.70;;;17.10;98.00;;;;;;5050639;28;20496;-72
2021/08/12 01:39:53;;;;;;;1.70;1.50;;;17.10;98.00;;;;;;5050129;28;20458;-72
2021/08/12 01:42:23;;;;;;;1.30;1.30;;;17.00;98.00;;;;;;5050201;28;20461;-72
2021/08/12 01:44:51;;;;;;;2.17;1.30;;;17.00;98.00;;;;;;5051750;28;20507;-73
2021/08/12 01:47:20;;;;;;;2.03;1.57;;;17.00;98.00;;;;;;5053816;28;20497;-72
2021/08/12 01:49:47;;;;;;;1.53;1.40;;;17.10;98.00;;;;;;5036252;28;20521;-72
2021/08/12 01:52:18;;;;;;;1.40;1.20;;;17.10;98.00;;;;;;5053757;28;20511;-72
2021/08/12 01:54:46;;;;;;;1.40;1.20;;;17.10;98.00;;;;;;5053582;28;20541;-72
2021/08/12 01:57:12;;;;;;;2.67;1.57;;;17.30;98.00;;;;;;5053627;28;20523;-72
2021/08/12 01:59:42;;;;;;;1.83;1.43;;;17.40;98.00;;;;;;5053552;28;20519;-72
2021/08/12 02:02:13;;;;;;;1.50;1.43;;;17.30;98.00;;;;;;5053604;28;20870;-73
2021/08/12 02:04:41;;;;;;;1.20;1.10;;;17.30;98.00;;;;;;5053348;28;20545;-73
2021/08/12 02:07:11;;;;;;;1.60;1.50;;;17.40;98.00;;;;;;5053456;28;20449;-72
2021/08/12 02:09:40;;;;;;;1.63;1.27;;;17.50;98.00;;;;;;5053303;28;20497;-73
2021/08/12 02:12:09;;;;;;;2.17;1.57;;;17.40;98.00;;;;;;5053368;28;20458;-72
2021/08/12 02:14:37;;;;;;;1.73;1.37;;;17.30;98.00;;;;;;5053146;28;20873;-73
2021/08/12 02:17:04;;;;;;;1.47;1.20;;;17.10;98.00;;;;;;5053329;28;20493;-72
2021/08/12 02:19:32;;;;;;;2.03;1.30;;;17.00;98.00;;;;;;5053140;28;20497;-72
2021/08/12 02:22:02;;;;;;;1.73;1.40;;;17.00;98.00;;;;;;5019080;28;20546;-72
2021/08/12 02:24:35;;;;;;;1.40;1.27;;;17.00;98.00;;;;;;5052897;28;20551;-72
2021/08/12 02:27:06;;;;;;;1.40;1.13;;;17.00;98.00;;;;;;5053028;28;20454;-73
2021/08/12 02:29:34;;;;;;;1.30;1.20;;;17.10;98.00;;;;;;5052999;28;20462;-71
2021/08/12 02:32:05;;;;;;;1.67;1.30;;;17.10;98.00;;;;;;5052785;28;20572;-72
2021/08/12 02:34:33;;;;;;;2.00;1.60;;;17.10;98.00;;;;;;5052784;28;20458;-73
2021/08/12 02:37:03;;;;;;;1.80;1.80;;;17.10;98.00;;;;;;5052964;28;20522;-72
2021/08/12 02:39:32;;;;;;;1.20;1.17;;;17.00;98.00;;;;;;5052859;28;20860;-72
2021/08/12 02:42:03;;;;;;;1.67;1.47;;;17.10;98.00;;;;;;5052878;28;20489;-72
2021/08/12 02:44:32;;;;;;;1.40;1.40;;;17.00;98.00;;;;;;5052921;28;20458;-72
2021/08/12 02:47:03;;;;;;;2.17;1.93;;;17.00;98.00;;;;;;5053033;28;20450;-72
2021/08/12 02:49:32;;;;;;;1.40;1.33;;;17.10;98.00;;;;;;5052776;28;20450;-72
2021/08/12 02:52:00;;;;;;;1.43;1.40;;;17.10;98.00;;;;;;5052533;28;20571;-72
2021/08/12 02:54:28;;;;;;;2.33;1.40;;;17.00;98.00;;;;;;5052368;28;20458;-72
2021/08/12 02:56:56;;;;;;;1.50;1.20;;;17.00;98.00;;;;;;5052347;28;20500;-72
2021/08/12 02:59:24;;;;;;;2.27;1.70;;;17.10;98.00;;;;;;5052302;28;20494;-73
2021/08/12 03:01:55;;;;;;;1.30;1.30;;;16.90;98.00;;;;;;5052522;28;20504;-72
2021/08/12 03:04:23;;;;;;;2.70;1.40;;;16.90;98.00;;;;;;5052192;28;20449;-72
2021/08/12 03:06:55;;;;;;;1.60;1.30;;;16.80;98.00;;;;;;5052225;28;20458;-72
2021/08/12 03:09:23;;;;;;;3.10;1.43;;;16.80;98.00;;;;;;5052087;28;20450;-72
2021/08/12 03:11:52;;;;;;;1.40;1.23;;;16.70;98.00;;;;;;5052145;28;20539;-72
2021/08/12 03:14:20;;;;;;;1.47;1.40;;;16.70;98.00;;;;;;5051982;28;20566;-72
2021/08/12 03:16:47;;;;;;;1.20;1.10;;;16.70;98.00;;;;;;5052064;28;20525;-73
2021/08/12 03:19:17;;;;;;;1.40;1.30;;;16.70;98.00;;;;;;5051944;28;20466;-73
2021/08/12 03:22:02;;;;;;;2.43;1.67;;;16.70;98.00;;;;;;5051850;28;20486;-72
2021/08/12 03:24:31;;;;;;;2.10;1.60;;;16.60;98.00;;;;;;5051799;28;20453;-73
2021/08/12 03:26:58;;;;;;;1.50;1.40;;;16.60;98.00;;;;;;5052007;28;20845;-72
2021/08/12 03:29:25;;;;;;;1.50;1.40;;;16.60;98.00;;;;;;5051753;28;20520;-72
2021/08/12 03:31:52;;;;;;;1.77;1.13;;;16.50;98.00;;;;;;5051599;28;20482;-72
2021/08/12 03:34:23;;;;;;;1.73;1.40;;;16.60;98.00;;;;;;5051645;28;20461;-71
2021/08/12 03:36:50;;;;;;;1.40;1.23;;;16.50;98.00;;;;;;5051988;28;20511;-72
2021/08/12 03:39:17;;;;;;;2.50;1.70;;;16.60;98.00;;;;;;5051565;28;20461;-72
2021/08/12 03:41:44;;;;;;;1.40;1.37;;;16.70;98.00;;;;;;5051659;28;20784;-72
2021/08/12 03:44:11;;;;;;;1.67;1.30;;;16.80;98.00;;;;;;5051471;28;20935;-72
2021/08/12 03:46:38;;;;;;;1.50;1.33;;;16.80;98.00;;;;;;5051566;28;20454;-72
2021/08/12 03:49:05;;;;;;;1.67;1.30;;;16.60;98.00;;;;;;5051439;28;20543;-72
2021/08/12 03:51:33;;;;;;;1.60;1.23;;;16.50;98.00;;;;;;5051468;28;20521;-72
2021/08/12 03:54:01;;;;;;;2.40;1.53;;;16.40;98.00;;;;;;5051456;28;20911;-73
2021/08/12 03:56:29;;;;;;;1.30;1.10;;;16.30;98.00;;;;;;5033951;28;20486;-73
2021/08/12 03:58:56;;;;;;;1.20;1.20;;;16.30;98.00;;;;;;5051420;28;20469;-73
2021/08/12 04:01:23;;;;;;;1.87;1.77;;;16.40;98.00;;;;;;5051362;28;20516;-72
2021/08/12 04:03:50;;;;;;;1.60;1.30;;;16.40;98.00;;;;;;5051450;28;20489;-72
2021/08/12 04:06:17;;;;;;;1.30;1.30;;;16.40;98.00;;;;;;5051442;28;20489;-73
2021/08/12 04:08:45;;;;;;;1.20;1.10;;;16.30;98.00;;;;;;5050633;28;20484;-72
2021/08/12 04:11:12;;;;;;;1.60;1.17;;;16.30;98.00;;;;;;5051132;28;20481;-73
2021/08/12 04:13:39;;;;;;;2.97;1.83;;;16.30;98.00;;;;;;5033429;28;20489;-73
2021/08/12 04:16:06;;;;;;;1.33;1.30;;;16.40;98.00;;;;;;5051172;28;20461;-73
2021/08/12 04:18:33;;;;;;;2.20;1.50;;;16.40;98.00;;;;;;5051057;28;20494;-72
2021/08/12 04:21:00;;;;;;;1.33;1.30;;;16.30;98.00;;;;;;5050889;28;20457;-72
2021/08/12 04:23:27;;;;;;;2.30;1.40;;;16.30;98.00;;;;;;5050915;28;20972;-72
2021/08/12 04:25:56;;;;;;;2.27;1.63;;;16.30;98.00;;;;;;5050878;28;20462;-72
2021/08/12 04:28:23;;;;;;;2.13;1.50;;;16.30;98.00;;;;;;5050679;28;20504;-73
2021/08/12 04:30:50;;;;;;;1.70;1.40;;;16.30;98.00;;;;;;5050742;28;20482;-72
2021/08/12 04:33:18;;;;;;;2.33;1.40;;;16.30;98.00;;;;;;5050520;28;20975;-73
2021/08/12 04:35:45;;;;;;;2.57;1.70;;;16.30;98.00;;;;;;5033266;28;20488;-72
2021/08/12 04:38:28;;;;;;;3.30;2.07;;;16.20;98.00;;;;;;5050775;28;20492;-72
2021/08/12 04:40:56;;;;;;;2.87;1.40;;;16.20;98.00;;;;;;5050745;28;20461;-72
2021/08/12 04:43:23;;;;;;;1.60;1.60;;;16.20;98.00;;;;;;5050682;28;20489;-72
2021/08/12 04:45:50;;;;;;;1.20;1.13;;;16.30;98.00;;;;;;5050760;28;21030;-73
2021/08/12 04:48:17;;;;;;;1.20;1.10;;;16.40;98.00;;;;;;5050611;28;21161;-73
2021/08/12 04:50:44;;;;;;;1.50;1.30;;;16.40;98.00;;;;;;5032792;28;20540;-73
2021/08/12 04:53:11;;;;;;;1.40;1.40;;;16.50;98.00;;;;;;5050744;28;20477;-71
2021/08/12 04:55:38;;;;;;;1.27;1.03;;;16.50;98.00;;;;;;5050453;28;20548;-72
2021/08/12 04:58:07;;;;;;;1.40;1.40;;;16.60;98.00;;;;;;5033036;28;20458;-72
2021/08/12 05:00:34;;;;;;;1.30;1.10;;;16.70;98.00;;;;;;5050481;28;20530;-73
2021/08/12 05:03:01;;;;;;;1.57;1.53;;;16.70;98.00;;;;;;5050620;28;20458;-72
2021/08/12 05:05:29;;;;;;;1.50;1.40;;;16.70;98.00;;;;;;5050348;28;20523;-72
2021/08/12 05:07:56;;;;;;;1.80;1.50;;;16.70;98.00;;;;;;5032763;28;20462;-73
2021/08/12 05:10:28;;;;;;;1.43;1.37;;;16.70;98.00;;;;;;5050397;28;20485;-73
2021/08/12 05:12:55;;;;;;;1.93;1.50;;;16.70;98.00;;;;;;5032928;28;20478;-72
2021/08/12 05:15:24;;;;;;;1.80;1.50;;;16.80;98.00;;;;;;5050482;28;20457;-73
2021/08/12 05:17:51;;;;;;;1.60;1.33;;;17.00;98.00;;;;;;5050565;28;20982;-72
2021/08/12 05:20:18;;;;;;;3.30;1.70;;;17.10;98.00;;;;;;5052635;28;20493;-72
2021/08/12 05:22:45;;;;;;;1.37;1.37;;;17.30;98.00;;;;;;5054513;28;20509;-73
2021/08/12 05:25:12;;;;;;;2.90;1.57;;;17.40;98.00;;;;;;5054623;28;20979;-72
2021/08/12 05:27:39;;;;;;;2.13;1.43;;;17.50;98.00;;;;;;5054370;28;20545;-72
2021/08/12 05:30:07;;;;;;;1.83;1.60;;;17.50;98.00;;;;;;5036422;28;20591;-72
2021/08/12 05:32:36;;;;;;;1.20;1.17;;;17.60;98.00;;;;;;5053964;28;20606;-72
2021/08/12 05:35:03;;;;;;;2.40;1.80;;;17.70;98.00;;;;;;5053746;28;20489;-72
2021/08/12 05:37:32;;;;;;;2.13;1.50;;;17.80;98.00;;;;;;5054172;28;20462;-72
2021/08/12 05:39:59;;;;;;;1.70;1.60;;;17.80;98.00;;;;;;5036362;28;20549;-72
2021/08/12 05:42:26;;;;;;;1.40;1.40;;;17.70;98.00;;;;;;5053832;28;20508;-73
2021/08/12 05:44:53;;;;;;;1.30;1.20;;;17.60;98.00;;;;;;5053852;28;20591;-72
2021/08/12 05:47:20;;;;;;;1.70;1.40;;;17.70;98.00;;;;;;5053824;28;20458;-72
2021/08/12 05:49:48;;;;;;;2.07;1.37;;;17.70;98.00;;;;;;5053715;28;20489;-72
2021/08/12 05:52:16;;;;;;;3.20;1.97;;;17.60;98.00;;;;;;5036001;28;21050;-72
2021/08/12 05:54:43;;;;;;;1.43;1.43;;;17.70;98.00;;;;;;5053981;28;20497;-72
2021/08/12 05:57:10;;;;;;;2.23;1.60;;;17.80;98.00;;;;;;5036278;28;20465;-72
2021/08/12 05:59:38;;;;;;;1.40;1.30;;;17.90;98.00;;;;;;5053673;28;20552;-72
2021/08/12 06:02:05;;;;;;;2.10;1.70;;;18.10;98.00;;;;;;5035761;28;20450;-73
2021/08/12 06:04:39;;;;;;;1.60;1.20;;;18.20;98.00;;;;;;5053722;28;20462;-73
2021/08/12 06:07:08;;;;;;;2.80;1.30;;;18.40;98.00;;;;;;5053425;28;20515;-72
2021/08/12 06:09:38;;;;;;;2.70;1.70;;;18.50;98.00;;;;;;5054123;28;20488;-73
2021/08/12 06:12:06;;;;;;;2.27;1.63;;;18.50;98.00;;;;;;5054118;28;20987;-72
2021/08/12 06:14:33;;;;;;;1.87;1.70;;;18.60;98.00;;;;;;5054501;28;20978;-72
2021/08/12 06:17:00;;;;;;;1.90;1.70;;;18.70;98.00;;;;;;5053709;28;20487;-72
2021/08/12 06:19:27;;;;;;;1.70;1.50;;;18.80;98.00;;;;;;5053143;28;20480;-72
2021/08/12 06:21:54;;;;;;;1.40;1.40;;;18.90;98.00;;;;;;5053335;28;20449;-71
2021/08/12 06:24:22;;;;;;;2.53;1.50;;;18.90;98.00;;;;;;5053260;28;20600;-73
2021/08/12 06:26:49;;;;;;;1.70;1.60;;;19.00;98.00;;;;;;5035564;28;20939;-74
2021/08/12 06:29:16;;;;;;;2.07;1.50;;;19.00;98.00;;;;;;5052807;28;20523;-73
2021/08/12 06:31:43;;;;;;;1.40;1.30;;;18.90;98.00;;;;;;5052359;28;20520;-73
2021/08/12 06:34:11;;;;;;;5.53;2.27;;;19.00;98.00;;;;;;5035074;28;20454;-75
2021/08/12 06:36:38;;;;;;;1.50;1.50;;;19.00;98.00;;;;;;5052712;28;20519;-73
2021/08/12 06:39:05;;;;;;;1.67;1.50;;;18.90;98.00;;;;;;5052880;28;20454;-73
2021/08/12 06:41:36;;;;;;;2.53;1.80;;;18.90;98.00;;;;;;5052982;28;20450;-73
2021/08/12 06:44:04;;;;;;;2.30;1.53;;;18.80;98.00;;;;;;5035170;28;20454;-73
2021/08/12 06:46:31;;;;;;;1.83;1.30;;;18.70;98.00;;;;;;5053086;28;20501;-73
2021/08/12 06:48:58;;;;;;;1.73;1.63;;;18.70;98.00;;;;;;5053048;28;20453;-74
2021/08/12 06:51:25;;;;;;;1.60;1.43;;;18.80;98.00;;;;;;5052807;28;20465;-73
2021/08/12 06:53:53;;;;;;;2.03;1.30;;;18.90;98.00;;;;;;5035071;28;20449;-73
2021/08/12 06:56:20;;;;;;;1.83;1.53;;;19.00;98.00;;;;;;5018702;28;20956;-72
2021/08/12 06:58:48;;;;;;;2.07;1.77;;;19.20;98.00;;;;;;5034889;28;20594;-73
2021/08/12 07:01:15;;;;;;;2.13;1.40;;;19.30;98.00;;;;;;5052516;28;20512;-73
2021/08/12 07:03:42;;;;;;;1.60;1.60;;;19.40;98.00;;;;;;5052009;28;20485;-72
2021/08/12 07:06:09;;;;;;;2.03;1.63;;;19.50;98.00;;;;;;5052412;28;20454;-75
2021/08/12 07:08:37;;;;;;;2.37;1.67;;;19.70;98.00;;;;;;5052472;28;20548;-73
2021/08/12 07:11:04;;;;;;;2.33;1.57;;;19.80;98.00;;;;;;5034420;28;20472;-75
2021/08/12 07:13:43;;;;;;;1.70;1.43;;;19.90;98.00;;;;;;5052237;28;20517;-73
2021/08/12 07:16:14;;;;;;;1.83;1.33;;;20.10;98.00;;;;;;5052251;28;20472;-73
2021/08/12 07:18:41;;;;;;;1.90;1.40;;;20.30;98.00;;;;;;5052043;28;20462;-76
2021/08/12 07:21:13;;;;;;;1.63;1.47;;;20.50;98.00;;;;;;5060266;28;20511;-77
2021/08/12 07:23:40;;;;;;;1.80;1.40;;;20.60;98.00;;;;;;5070321;28;20467;-77
2021/08/12 07:26:11;;;;;;;2.70;1.93;;;20.60;98.00;;;;;;5052942;28;20481;-79
2021/08/12 07:28:38;;;;;;;3.63;2.47;;;20.60;98.00;;;;;;5062537;28;20453;-79
2021/08/12 07:31:05;;;;;;;3.20;2.07;;;20.70;98.00;;;;;;5078997;28;20487;-73
2021/08/12 07:33:33;;;;;;;2.60;2.20;;;20.80;98.00;;;;;;5079845;28;20622;-74
2021/08/12 07:36:00;;;;;;;2.43;2.00;;;21.00;98.00;;;;;;5068838;28;20948;-75
2021/08/12 07:38:29;;;;;;;2.53;1.60;;;21.10;98.00;;;;;;5079040;28;20495;-77
2021/08/12 07:40:57;;;;;;;1.70;1.70;;;21.10;98.00;;;;;;5061915;28;20445;-74
2021/08/12 07:43:25;;;;;;;1.77;1.70;;;21.40;98.00;;;;;;5077465;28;20526;-76
2021/08/12 07:45:52;;;;;;;2.13;1.57;;;21.50;98.00;;;;;;5070208;28;20460;-72
2021/08/12 07:48:19;;;;;;;2.40;2.13;;;21.80;98.00;;;;;;5070751;28;20491;-74
2021/08/12 07:51:03;;;;;;;1.67;1.63;;;21.90;98.00;;;;;;5071364;28;20485;-74
2021/08/12 07:53:30;;;;;;;2.67;1.80;;;22.10;98.00;;;;;;5072691;28;20497;-76
2021/08/12 07:56:00;;;;;;;3.20;1.80;;;22.20;98.00;;;;;;5078318;28;20487;-75
2021/08/12 07:58:28;;;;;;;1.60;1.50;;;22.30;98.00;;;;;;5077359;28;20904;-76
2021/08/12 08:00:55;;;;;;;2.27;1.80;;;22.30;98.00;;;;;;5078513;28;20582;-75
2021/08/12 08:03:22;;;;;;;2.20;1.60;;;22.40;98.00;;;;;;5070888;28;20866;-76
2021/08/12 08:05:50;;;;;;;2.60;2.00;;;22.50;98.00;;;;;;5079910;28;20491;-75
2021/08/12 08:08:17;;;;;;;1.80;1.47;;;22.60;98.00;;;;;;5086766;28;21037;-76
2021/08/12 08:10:45;;;;;;;2.93;2.20;;;22.50;98.00;;;;;;5078781;28;20684;-77
2021/08/12 08:13:12;;;;;;;2.03;1.50;;;22.50;98.00;;;;;;5078525;28;20540;-75
2021/08/12 08:15:39;;;;;;;2.23;1.90;;;22.50;98.00;;;;;;5079164;28;20504;-75
2021/08/12 08:18:06;;;;;;;3.00;1.90;;;22.60;98.00;;;;;;5060620;28;21079;-75
2021/08/12 08:20:33;;;;;;;1.77;1.60;;;22.70;98.00;;;;;;5078349;28;20487;-76
2021/08/12 08:23:07;;;;;;;2.10;1.77;;;22.70;98.00;;;;;;5077794;28;21016;-75
2021/08/12 08:25:34;;;;;;;1.70;1.53;;;22.80;98.00;;;;;;5086594;28;20455;-76
2021/08/12 08:28:04;;;;;;;1.40;1.40;;;22.90;98.00;;;;;;5077724;28;20456;-75
2021/08/12 08:30:34;;;;;;;2.50;1.60;;;23.10;98.00;;;;;;5081356;28;20537;-75
2021/08/12 08:33:01;;;;;;;1.70;1.70;;;23.20;98.00;;;;;;5090289;28;20511;-75
2021/08/12 08:35:28;;;;;;;3.10;1.70;;;23.40;98.00;;;;;;5090869;28;20509;-75
2021/08/12 08:37:56;;;;;;;1.47;1.37;;;23.50;98.00;;;;;;5090932;28;20452;-76
2021/08/12 08:40:25;;;;;;;1.70;1.67;;;23.60;98.00;;;;;;5091040;28;20455;-75
2021/08/12 08:42:53;;;;;;;2.70;1.77;;;23.90;98.00;;;;;;5090942;28;20491;-75
2021/08/12 08:45:23;;;;;;;2.60;1.80;;;24.10;98.00;;;;;;5090961;28;20459;-75
2021/08/12 08:47:52;;;;;;;2.80;2.13;;;24.20;98.00;;;;;;5090991;28;20452;-76
2021/08/12 08:50:21;;;;;;;3.83;1.93;;;24.30;98.00;;;;;;5090764;28;20462;-75
2021/08/12 08:52:49;;;;;;;2.17;1.50;;;24.40;98.00;;;;;;5090701;28;20515;-75
2021/08/12 08:55:20;;;;;;;1.90;1.80;;;24.60;98.00;;;;;;5095034;28;20938;-75
2021/08/12 08:57:49;;;;;;;1.70;1.53;;;24.70;98.00;;;;;;5094986;28;20452;-75
2021/08/12 09:00:17;;;;;;;1.67;1.57;;;25.00;98.00;;;;;;5094940;28;20744;-75
2021/08/12 09:02:46;;;;;;;2.83;1.93;;;25.10;98.00;;;;;;5094848;28;20448;-75
2021/08/12 09:05:14;;;;;;;1.80;1.77;;;25.30;98.00;;;;;;5095001;28;20455;-75
2021/08/12 09:07:41;;;;;;;2.23;1.80;;;25.40;98.00;;;;;;5094868;28;20508;-75
2021/08/12 09:10:09;;;;;;;2.47;1.87;;;25.60;98.00;;;;;;5094392;28;20999;-75
2021/08/12 09:12:36;;;;;;;1.90;1.53;;;25.80;98.00;;;;;;5094162;28;20882;-75
2021/08/12 09:15:08;;;;;;;2.87;2.10;;;25.90;98.00;;;;;;5094576;28;20464;-75
2021/08/12 09:17:36;;;;;;;2.60;1.80;;;26.00;98.00;;;;;;5094295;28;20455;-75
2021/08/12 09:20:10;;;;;;;2.30;2.20;;;26.20;98.00;;;;;;5094598;28;20494;-75
2021/08/12 09:22:53;;;;;;;2.23;1.63;;;26.40;98.00;;;;;;5094834;28;20502;-75
2021/08/12 09:25:29;;;;;;;2.23;1.77;;;26.50;98.00;;;;;;5094854;28;20459;-73
2021/08/12 09:28:25;;;;;;;2.57;1.87;;;26.70;98.00;;;;;;5076977;28;20786;-76
2021/08/12 09:31:12;;;;;;;2.20;2.00;;;26.90;98.00;;;;;;5047612;28;20815;-76
2021/08/12 09:33:52;;;;;;;2.63;1.90;;;27.00;98.00;;;;;;5076319;28;20484;-76
2021/08/12 09:36:30;;;;;;;2.50;1.70;;;27.20;98.00;;;;;;5094292;28;20882;-78
2021/08/12 09:39:16;;;;;;;2.37;1.83;;;27.30;98.00;;;;;;5094261;28;20546;-76
2021/08/12 09:41:47;;;;;;;2.03;1.90;;;27.50;98.00;;;;;;5094287;28;20461;-75
2021/08/12 09:44:48;;;;;;;2.10;1.70;;;27.60;95.90;;;;;;5094081;28;20517;-76
2021/08/12 09:47:30;;;;;;;2.70;1.97;;;27.70;96.40;;;;;;5011454;28;20820;-75
2021/08/12 09:50:00;;;;;;;7.13;2.33;;;27.90;97.00;;;;;;5085223;28;20451;-76
2021/08/12 09:52:32;;;;;;;2.27;2.13;;;28.00;94.20;;;;;;5094346;28;20475;-78
2021/08/12 09:55:01;;;;;;;2.00;1.80;;;28.20;92.30;;;;;;5094641;28;20472;-77
2021/08/12 09:57:43;;;;;;;2.30;1.83;;;28.30;93.60;;;;;;5094714;28;20953;-78
2021/08/12 10:00:12;;;;;;;3.33;1.97;;;28.50;90.50;;;;;;5094499;28;20459;-77
2021/08/12 10:02:41;;;;;;;2.40;2.03;;;28.50;88.80;;;;;;5094543;28;20479;-75
2021/08/12 10:05:10;;;;;;;3.67;2.50;;;28.60;88.20;;;;;;5093510;28;20530;-76
2021/08/12 10:07:45;;;;;;;4.03;1.70;;;28.60;88.80;;;;;;5094378;28;20934;-75
2021/08/12 10:10:18;;;;;;;3.97;1.90;;;28.70;89.90;;;;;;5094424;28;20447;-75
2021/08/12 10:12:47;;;;;;;2.07;1.80;;;28.70;88.70;;;;;;5094391;28;20487;-76
2021/08/12 10:15:16;;;;;;;2.10;2.00;;;28.80;89.60;;;;;;5094288;28;20689;-75
2021/08/12 10:17:46;;;;;;;2.93;2.00;;;29.00;88.90;;;;;;5094099;28;20513;-74
2021/08/12 10:20:17;;;;;;;3.37;2.07;;;29.20;88.50;;;;;;5094189;28;20961;-74
2021/08/12 10:22:46;;;;;;;3.73;2.33;;;29.20;88.30;;;;;;5094213;28;20451;-77
2021/08/12 10:25:15;;;;;;;2.40;2.13;;;29.40;89.70;;;;;;5094216;28;20829;-75
2021/08/12 10:27:43;;;;;;;3.03;1.90;;;29.50;89.10;;;;;;5094074;28;20456;-75
2021/08/12 10:30:12;;;;;;;3.50;1.90;;;29.60;88.70;;;;;;5093938;28;20491;-75
2021/08/12 10:32:44;;;;;;;2.57;2.33;;;29.70;87.70;;;;;;5093651;28;21147;-75
2021/08/12 10:35:18;;;;;;;2.40;1.63;;;29.70;84.90;;;;;;5094033;28;20547;-76
2021/08/12 10:37:45;;;;;;;2.33;1.70;;;29.60;88.60;;;;;;5095405;28;20464;-75
2021/08/12 10:40:15;;;;;;;1.70;1.60;;;29.50;87.70;;;;;;5098438;28;20456;-75
2021/08/12 10:42:46;;;;;;;3.10;2.17;;;29.30;89.80;;;;;;5089301;28;20460;-75
2021/08/12 10:45:14;;;;;;;2.70;2.10;;;29.40;88.50;;;;;;5093736;28;20454;-75
2021/08/12 10:47:47;;;;;;;2.60;1.90;;;29.60;88.00;;;;;;5093986;28;20804;-76
2021/08/12 10:50:31;;;;;;;2.20;2.00;;;29.80;87.80;;;;;;5093721;28;20938;-75
2021/08/12 10:53:21;;;;;;;3.10;2.00;;;29.90;85.30;;;;;;5093559;28;20484;-75
2021/08/12 10:56:10;;;;;;;3.27;2.03;;;30.00;86.70;;;;;;5093377;28;20538;-74
2021/08/12 10:58:39;;;;;;;2.97;2.00;;;30.10;85.80;;;;;;5075486;28;20872;-75
2021/08/12 11:01:08;;;;;;;2.87;2.00;;;30.20;85.50;;;;;;5093318;28;20964;-77
2021/08/12 11:03:45;;;;;;;3.77;2.23;;;30.20;84.50;;;;;;5075950;28;20458;-75
2021/08/12 11:06:15;;;;;;;2.70;2.10;;;30.30;86.00;;;;;;5093515;28;20439;-76
2021/08/12 11:09:04;;;;;;;2.63;1.87;;;30.40;86.20;;;;;;5093391;28;20452;-75
2021/08/12 11:12:00;;;;;;;2.77;2.07;;;30.30;84.80;;;;;;5075456;28;20456;-75
2021/08/12 11:14:53;;;;;;;7.60;2.43;;;30.30;84.20;;;;;;5093875;28;20512;-75
2021/08/12 11:17:21;;;;;;;3.77;2.40;;;30.50;83.30;;;;;;5094460;28;20809;-71
2021/08/12 11:19:49;;;;;;;4.20;2.60;;;30.60;84.50;;;;;;5093135;28;20445;-72
2021/08/12 11:22:34;;;;;;;4.67;2.70;;;30.60;83.30;;;;;;5094249;28;20229;-73
2021/08/12 11:25:03;;;;;;;2.83;2.30;;;30.70;83.40;;;;;;5094157;28;20452;-73
2021/08/12 11:27:44;;;;;;;4.67;2.47;;;30.80;82.30;;;;;;5093929;28;20915;-73
2021/08/12 11:30:50;;;;;;;2.67;2.00;;;30.80;82.40;;;;;;5093392;28;20500;-74
2021/08/12 11:33:51;;;;;;;3.70;2.70;;;30.60;83.80;;;;;;5092997;28;20560;-73
2021/08/12 11:36:23;;;;;;;3.33;2.40;;;30.70;83.00;;;;;;5088312;28;21106;-72
2021/08/12 11:38:57;;;;;;;4.30;2.80;;;30.90;81.80;;;;;;5093592;28;20538;-71
2021/08/12 11:41:27;;;;;;;4.40;2.23;;;31.00;83.00;;;;;;5093324;28;20494;-72
2021/08/12 11:43:55;;;;;;;3.10;2.10;;;31.10;80.90;;;;;;5093042;28;20999;-72
2021/08/12 11:46:23;;;;;;;3.83;2.50;;;31.00;81.10;;;;;;5092592;28;20525;-72
2021/08/12 11:48:51;;;;;;;3.10;2.40;;;31.00;84.50;;;;;;5092810;28;20483;-73
2021/08/12 11:51:20;;;;;;;2.40;1.80;;;31.00;83.80;;;;;;5092621;28;20456;-72
2021/08/12 11:53:49;;;;;;;3.37;2.30;;;31.00;83.30;;;;;;5092387;28;20524;-72
2021/08/12 11:56:24;;;;;;;5.60;3.03;;;30.90;82.10;;;;;;5092460;28;20451;-72
2021/08/12 11:58:52;;;;;;;4.33;2.80;;;30.90;82.60;;;;;;5058985;28;20465;-74
2021/08/12 12:01:20;;;;;;;3.70;2.57;;;30.80;82.10;;;;;;5092467;28;20459;-72
2021/08/12 12:03:57;;;;;;;2.70;2.20;;;30.80;83.90;;;;;;5092839;28;21071;-73
2021/08/12 12:06:36;;;;;;;4.00;2.60;;;30.90;82.70;;;;;;5092782;28;20485;-73
2021/08/12 12:09:23;;;;;;;2.30;2.10;;;30.90;85.60;;;;;;5092242;28;20960;-71
2021/08/12 12:12:02;;;;;;;2.83;2.00;;;31.00;82.30;;;;;;5092483;28;20448;-72
2021/08/12 12:14:31;;;;;;;3.57;2.67;;;31.00;81.90;;;;;;5091341;28;20490;-72
2021/08/12 12:17:23;;;;;;;3.60;2.13;;;31.00;81.00;;;;;;5074294;28;20505;-73
2021/08/12 12:20:09;;;;;;;3.10;2.27;;;31.00;83.50;;;;;;5092030;28;20495;-73
2021/08/12 12:22:43;;;;;;;3.17;2.30;;;31.10;82.50;;;;;;5091961;28;20495;-73
2021/08/12 12:25:13;;;;;;;3.50;2.53;;;31.20;81.80;;;;;;5091934;28;20451;-73
2021/08/12 12:27:47;;;;;;;3.00;1.90;;;31.40;83.80;;;;;;5091741;28;20491;-72
2021/08/12 12:30:17;;;;;;;7.10;2.60;;;31.70;80.40;;;;;;5091915;28;20864;-74
2021/08/12 12:32:45;;;;;;;6.67;2.87;;;32.00;78.90;;;;;;5091659;28;20467;-74
2021/08/12 12:35:13;;;;;;;4.13;2.77;;;32.10;80.40;;;;;;5092114;28;20483;-73
2021/08/12 12:37:42;;;;;;;4.67;2.73;;;32.10;79.60;;;;;;5093062;28;20545;-74
2021/08/12 12:40:18;;;;;;;3.47;2.20;;;32.20;80.90;;;;;;5092725;28;20523;-74
2021/08/12 12:42:50;;;;;;;4.40;2.70;;;32.00;80.50;;;;;;5091784;28;20451;-73
2021/08/12 12:45:19;;;;;;;3.97;2.33;;;32.00;80.60;;;;;;5091902;28;20938;-74
2021/08/12 12:47:46;;;;;;;2.90;2.20;;;32.00;79.00;;;;;;5091880;28;20924;-72
2021/08/12 12:50:17;;;;;;;3.00;2.40;;;31.90;79.60;;;;;;5091693;28;20486;-72
2021/08/12 12:53:08;;;;;;;4.80;2.20;;;32.10;82.20;;;;;;5091789;28;20500;-72
2021/08/12 12:55:36;;;;;;;3.13;2.33;;;32.30;79.40;;;;;;5071450;28;20492;-74
2021/08/12 12:58:16;;;;;;;3.47;2.40;;;32.40;79.30;;;;;;5073390;28;20953;-73
2021/08/12 13:00:44;;;;;;;3.10;2.40;;;32.40;76.80;;;;;;5091581;28;20455;-72
2021/08/12 13:03:12;;;;;;;4.67;2.90;;;32.60;75.90;;;;;;5091807;28;21017;-72
2021/08/12 13:05:50;;;;;;;3.50;2.60;;;32.50;77.70;;;;;;5091438;28;20464;-72